sensor_id;sensor_type;location;lat;lon;timestamp;temperature;humidity
27978;DHT22;15314;49.248;6.968;2024-02-16T00:00:08;12.20;99.90
27978;DHT22;15314;49.248;6.968;2024-02-16T00:01:27;12.20;99.90
27978;DHT22;15314;49.248;6.968;2024-02-16T00:02:46;12.20;99.90
27978;DHT22;15314;49.248;6.968;2024-02-16T00:04:05;12.30;99.90
27978;DHT22;15314;49.248;6.968;2024-02-16T00:05:24;12.20;99.90
27978;DHT22;15314;49.248;6.968;2024-02-16T00:06:44;12.30;99.90
27978;DHT22;15314;49.248;6.968;2024-02-16T00:08:03;12.20;99.90
27978;DHT22;15314;49.248;6.968;2024-02-16T00:09:22;12.30;99.90
27978;DHT22;15314;49.248;6.968;2024-02-16T00:10:41;12.40;99.90
27978;DHT22;15314;49.248;6.968;2024-02-16T00:12:02;12.50;99.90
27978;DHT22;15314;49.248;6.968;2024-02-16T00:13:21;12.40;99.90
27978;DHT22;15314;49.248;6.968;2024-02-16T00:14:41;12.50;99.90
27978;DHT22;15314;49.248;6.968;2024-02-16T00:16:00;12.50;99.90
27978;DHT22;15314;49.248;6.968;2024-02-16T00:17:19;12.50;99.90
27978;DHT22;15314;49.248;6.968;2024-02-16T00:18:39;12.40;99.90
27978;DHT22;15314;49.248;6.968;2024-02-16T00:19:59;12.50;99.90
27978;DHT22;15314;49.248;6.968;2024-02-16T00:21:18;12.50;99.90
27978;DHT22;15314;49.248;6.968;2024-02-16T00:22:37;12.50;99.90
27978;DHT22;15314;49.248;6.968;2024-02-16T00:23:56;12.60;99.90
27978;DHT22;15314;49.248;6.968;2024-02-16T00:25:16;12.50;99.90
27978;DHT22;15314;49.248;6.968;2024-02-16T00:26:37;12.50;99.90
27978;DHT22;15314;49.248;6.968;2024-02-16T00:27:59;12.50;99.90
27978;DHT22;15314;49.248;6.968;2024-02-16T00:29:18;12.50;99.90
27978;DHT22;15314;49.248;6.968;2024-02-16T00:30:34;12.40;99.90
27978;DHT22;15314;49.248;6.968;2024-02-16T00:31:55;12.40;99.90
27978;DHT22;15314;49.248;6.968;2024-02-16T00:33:14;12.50;99.90
27978;DHT22;15314;49.248;6.968;2024-02-16T00:34:35;12.50;99.90
27978;DHT22;15314;49.248;6.968;2024-02-16T00:35:54;12.50;99.90
27978;DHT22;15314;49.248;6.968;2024-02-16T00:37:13;12.60;99.90
27978;DHT22;15314;49.248;6.968;2024-02-16T00:38:32;12.60;99.90
27978;DHT22;15314;49.248;6.968;2024-02-16T00:39:52;12.60;99.90
27978;DHT22;15314;49.248;6.968;2024-02-16T00:41:19;12.60;99.90
27978;DHT22;15314;49.248;6.968;2024-02-16T00:42:39;12.70;99.90
27978;DHT22;15314;49.248;6.968;2024-02-16T00:43:58;12.60;99.90
27978;DHT22;15314;49.248;6.968;2024-02-16T00:45:18;12.50;99.90
27978;DHT22;15314;49.248;6.968;2024-02-16T00:46:37;12.50;99.90
27978;DHT22;15314;49.248;6.968;2024-02-16T00:47:57;12.50;99.90
27978;DHT22;15314;49.248;6.968;2024-02-16T00:49:16;12.50;99.90
27978;DHT22;15314;49.248;6.968;2024-02-16T00:50:35;12.50;99.90
27978;DHT22;15314;49.248;6.968;2024-02-16T00:51:54;12.50;99.90
27978;DHT22;15314;49.248;6.968;2024-02-16T00:53:14;12.50;99.90
27978;DHT22;15314;49.248;6.968;2024-02-16T00:54:33;12.40;99.90
27978;DHT22;15314;49.248;6.968;2024-02-16T00:55:52;12.40;99.90
27978;DHT22;15314;49.248;6.968;2024-02-16T00:57:12;12.50;99.90
27978;DHT22;15314;49.248;6.968;2024-02-16T00:58:32;12.50;99.90
27978;DHT22;15314;49.248;6.968;2024-02-16T00:59:52;12.50;99.90
27978;DHT22;15314;49.248;6.968;2024-02-16T01:01:11;12.50;99.90
27978;DHT22;15314;49.248;6.968;2024-02-16T01:02:31;12.50;99.90
27978;DHT22;15314;49.248;6.968;2024-02-16T01:03:50;12.50;99.90
27978;DHT22;15314;49.248;6.968;2024-02-16T01:05:11;12.60;99.90
27978;DHT22;15314;49.248;6.968;2024-02-16T01:06:30;12.60;99.90
27978;DHT22;15314;49.248;6.968;2024-02-16T01:07:49;12.70;99.90
27978;DHT22;15314;49.248;6.968;2024-02-16T01:09:09;12.70;99.90
27978;DHT22;15314;49.248;6.968;2024-02-16T01:10:28;12.70;99.90
27978;DHT22;15314;49.248;6.968;2024-02-16T01:11:47;12.80;99.90
27978;DHT22;15314;49.248;6.968;2024-02-16T01:13:06;12.70;99.90
27978;DHT22;15314;49.248;6.968;2024-02-16T01:14:25;12.80;99.90
27978;DHT22;15314;49.248;6.968;2024-02-16T01:15:45;12.80;99.90
27978;DHT22;15314;49.248;6.968;2024-02-16T01:17:04;12.80;99.90
27978;DHT22;15314;49.248;6.968;2024-02-16T01:18:23;12.80;99.90
27978;DHT22;15314;49.248;6.968;2024-02-16T01:19:42;12.80;99.90
27978;DHT22;15314;49.248;6.968;2024-02-16T01:21:02;12.80;99.90
27978;DHT22;15314;49.248;6.968;2024-02-16T01:22:22;12.80;99.90
27978;DHT22;15314;49.248;6.968;2024-02-16T01:23:42;12.90;99.90
27978;DHT22;15314;49.248;6.968;2024-02-16T01:25:01;12.90;99.90
27978;DHT22;15314;49.248;6.968;2024-02-16T01:26:20;12.90;99.90
27978;DHT22;15314;49.248;6.968;2024-02-16T01:27:40;12.90;99.90
27978;DHT22;15314;49.248;6.968;2024-02-16T01:29:00;12.90;99.90
27978;DHT22;15314;49.248;6.968;2024-02-16T01:30:20;12.90;99.90
27978;DHT22;15314;49.248;6.968;2024-02-16T01:31:40;12.90;99.90
27978;DHT22;15314;49.248;6.968;2024-02-16T01:32:59;13.00;99.90
27978;DHT22;15314;49.248;6.968;2024-02-16T01:34:18;13.00;99.90
27978;DHT22;15314;49.248;6.968;2024-02-16T01:35:38;13.10;99.90
27978;DHT22;15314;49.248;6.968;2024-02-16T01:36:57;13.10;99.90
27978;DHT22;15314;49.248;6.968;2024-02-16T01:38:17;13.00;99.90
27978;DHT22;15314;49.248;6.968;2024-02-16T01:39:36;13.10;99.90
27978;DHT22;15314;49.248;6.968;2024-02-16T01:40:55;13.10;99.90
27978;DHT22;15314;49.248;6.968;2024-02-16T01:42:15;13.10;99.90
27978;DHT22;15314;49.248;6.968;2024-02-16T01:43:34;13.10;99.90
27978;DHT22;15314;49.248;6.968;2024-02-16T01:44:53;13.10;99.90
27978;DHT22;15314;49.248;6.968;2024-02-16T01:46:12;13.00;99.90
27978;DHT22;15314;49.248;6.968;2024-02-16T01:47:31;13.00;99.90
27978;DHT22;15314;49.248;6.968;2024-02-16T01:48:51;13.10;99.90
27978;DHT22;15314;49.248;6.968;2024-02-16T01:50:11;13.00;99.90
27978;DHT22;15314;49.248;6.968;2024-02-16T01:51:30;13.00;99.90
27978;DHT22;15314;49.248;6.968;2024-02-16T01:52:49;13.00;99.90
27978;DHT22;15314;49.248;6.968;2024-02-16T01:54:09;13.00;99.90
27978;DHT22;15314;49.248;6.968;2024-02-16T01:55:28;13.00;99.90
27978;DHT22;15314;49.248;6.968;2024-02-16T01:56:48;12.90;99.90
27978;DHT22;15314;49.248;6.968;2024-02-16T01:58:09;13.00;99.90
27978;DHT22;15314;49.248;6.968;2024-02-16T01:59:25;13.00;99.90
27978;DHT22;15314;49.248;6.968;2024-02-16T02:00:45;13.00;99.90
27978;DHT22;15314;49.248;6.968;2024-02-16T02:02:04;12.90;99.90
27978;DHT22;15314;49.248;6.968;2024-02-16T02:03:23;12.90;99.90
27978;DHT22;15314;49.248;6.968;2024-02-16T02:04:42;12.90;99.90
27978;DHT22;15314;49.248;6.968;2024-02-16T02:06:02;12.90;99.90
27978;DHT22;15314;49.248;6.968;2024-02-16T02:07:24;12.90;99.90
27978;DHT22;15314;49.248;6.968;2024-02-16T02:08:45;13.00;99.90
27978;DHT22;15314;49.248;6.968;2024-02-16T02:10:04;13.00;99.90
27978;DHT22;15314;49.248;6.968;2024-02-16T02:11:23;13.10;99.90
27978;DHT22;15314;49.248;6.968;2024-02-16T02:12:42;13.10;99.90
27978;DHT22;15314;49.248;6.968;2024-02-16T02:14:03;13.00;99.90
27978;DHT22;15314;49.248;6.968;2024-02-16T02:15:22;13.10;99.90
27978;DHT22;15314;49.248;6.968;2024-02-16T02:16:41;13.10;99.90
27978;DHT22;15314;49.248;6.968;2024-02-16T02:18:01;13.10;99.90
27978;DHT22;15314;49.248;6.968;2024-02-16T02:19:20;13.20;99.90
27978;DHT22;15314;49.248;6.968;2024-02-16T02:20:39;13.20;99.90
27978;DHT22;15314;49.248;6.968;2024-02-16T02:21:59;13.20;99.90
27978;DHT22;15314;49.248;6.968;2024-02-16T02:23:19;13.20;99.90
27978;DHT22;15314;49.248;6.968;2024-02-16T02:24:39;13.20;99.90
27978;DHT22;15314;49.248;6.968;2024-02-16T02:25:58;13.30;99.90
27978;DHT22;15314;49.248;6.968;2024-02-16T02:27:17;13.30;99.90
27978;DHT22;15314;49.248;6.968;2024-02-16T02:28:36;13.30;99.90
27978;DHT22;15314;49.248;6.968;2024-02-16T02:29:56;13.30;99.90
27978;DHT22;15314;49.248;6.968;2024-02-16T02:31:15;13.30;99.90
27978;DHT22;15314;49.248;6.968;2024-02-16T02:32:34;13.30;99.90
27978;DHT22;15314;49.248;6.968;2024-02-16T02:33:54;13.30;99.90
27978;DHT22;15314;49.248;6.968;2024-02-16T02:35:13;13.30;99.90
27978;DHT22;15314;49.248;6.968;2024-02-16T02:36:33;13.30;99.90
27978;DHT22;15314;49.248;6.968;2024-02-16T02:37:52;13.30;99.90
27978;DHT22;15314;49.248;6.968;2024-02-16T02:39:11;13.30;99.90
27978;DHT22;15314;49.248;6.968;2024-02-16T02:40:32;13.30;99.90
27978;DHT22;15314;49.248;6.968;2024-02-16T02:41:51;13.30;99.90
27978;DHT22;15314;49.248;6.968;2024-02-16T02:43:10;13.30;99.90
27978;DHT22;15314;49.248;6.968;2024-02-16T02:44:30;13.30;99.90
27978;DHT22;15314;49.248;6.968;2024-02-16T02:45:50;13.30;99.90
27978;DHT22;15314;49.248;6.968;2024-02-16T02:47:09;13.30;99.90
27978;DHT22;15314;49.248;6.968;2024-02-16T02:48:28;13.30;99.90
27978;DHT22;15314;49.248;6.968;2024-02-16T02:49:47;13.30;99.90
27978;DHT22;15314;49.248;6.968;2024-02-16T02:51:07;13.30;99.80
27978;DHT22;15314;49.248;6.968;2024-02-16T02:52:26;13.30;99.90
27978;DHT22;15314;49.248;6.968;2024-02-16T02:53:45;13.20;99.90
27978;DHT22;15314;49.248;6.968;2024-02-16T02:55:04;13.20;99.90
27978;DHT22;15314;49.248;6.968;2024-02-16T02:56:24;13.20;99.90
27978;DHT22;15314;49.248;6.968;2024-02-16T02:57:43;13.20;99.90
27978;DHT22;15314;49.248;6.968;2024-02-16T02:59:02;13.30;99.90
27978;DHT22;15314;49.248;6.968;2024-02-16T03:00:21;13.30;99.90
27978;DHT22;15314;49.248;6.968;2024-02-16T03:01:41;13.30;99.90
27978;DHT22;15314;49.248;6.968;2024-02-16T03:03:00;13.40;99.90
27978;DHT22;15314;49.248;6.968;2024-02-16T03:04:20;13.30;99.70
27978;DHT22;15314;49.248;6.968;2024-02-16T03:05:40;13.30;99.90
27978;DHT22;15314;49.248;6.968;2024-02-16T03:06:59;13.40;99.70
27978;DHT22;15314;49.248;6.968;2024-02-16T03:08:19;13.40;99.70
27978;DHT22;15314;49.248;6.968;2024-02-16T03:09:38;13.40;99.30
27978;DHT22;15314;49.248;6.968;2024-02-16T03:11:01;13.40;99.00
27978;DHT22;15314;49.248;6.968;2024-02-16T03:12:20;13.40;98.90
27978;DHT22;15314;49.248;6.968;2024-02-16T03:13:39;13.40;98.70
27978;DHT22;15314;49.248;6.968;2024-02-16T03:14:59;13.40;98.70
27978;DHT22;15314;49.248;6.968;2024-02-16T03:16:18;13.40;98.70
27978;DHT22;15314;49.248;6.968;2024-02-16T03:17:37;13.40;98.60
27978;DHT22;15314;49.248;6.968;2024-02-16T03:18:56;13.50;98.50
27978;DHT22;15314;49.248;6.968;2024-02-16T03:20:16;13.50;98.50
27978;DHT22;15314;49.248;6.968;2024-02-16T03:21:35;13.50;98.60
27978;DHT22;15314;49.248;6.968;2024-02-16T03:22:55;13.50;98.60
27978;DHT22;15314;49.248;6.968;2024-02-16T03:24:14;13.50;98.50
27978;DHT22;15314;49.248;6.968;2024-02-16T03:25:33;13.50;98.50
27978;DHT22;15314;49.248;6.968;2024-02-16T03:26:53;13.50;98.40
27978;DHT22;15314;49.248;6.968;2024-02-16T03:28:12;13.50;98.20
27978;DHT22;15314;49.248;6.968;2024-02-16T03:29:32;13.50;98.20
27978;DHT22;15314;49.248;6.968;2024-02-16T03:30:51;13.60;98.00
27978;DHT22;15314;49.248;6.968;2024-02-16T03:32:10;13.60;98.10
27978;DHT22;15314;49.248;6.968;2024-02-16T03:33:29;13.60;98.10
27978;DHT22;15314;49.248;6.968;2024-02-16T03:34:48;13.70;98.50
27978;DHT22;15314;49.248;6.968;2024-02-16T03:36:08;13.70;98.30
27978;DHT22;15314;49.248;6.968;2024-02-16T03:37:27;13.70;98.30
27978;DHT22;15314;49.248;6.968;2024-02-16T03:38:47;13.60;98.20
27978;DHT22;15314;49.248;6.968;2024-02-16T03:40:09;13.70;98.10
27978;DHT22;15314;49.248;6.968;2024-02-16T03:41:28;13.70;98.10
27978;DHT22;15314;49.248;6.968;2024-02-16T03:42:47;13.80;97.70
27978;DHT22;15314;49.248;6.968;2024-02-16T03:44:07;13.70;98.30
27978;DHT22;15314;49.248;6.968;2024-02-16T03:45:26;13.70;98.50
27978;DHT22;15314;49.248;6.968;2024-02-16T03:46:49;13.60;98.40
27978;DHT22;15314;49.248;6.968;2024-02-16T03:48:08;13.70;98.50
27978;DHT22;15314;49.248;6.968;2024-02-16T03:49:27;13.80;98.20
27978;DHT22;15314;49.248;6.968;2024-02-16T03:50:49;13.80;98.10
27978;DHT22;15314;49.248;6.968;2024-02-16T03:52:09;13.70;98.10
27978;DHT22;15314;49.248;6.968;2024-02-16T03:53:28;13.80;98.10
27978;DHT22;15314;49.248;6.968;2024-02-16T03:54:47;13.80;98.30
27978;DHT22;15314;49.248;6.968;2024-02-16T03:56:08;13.80;98.40
27978;DHT22;15314;49.248;6.968;2024-02-16T03:57:27;13.80;98.10
27978;DHT22;15314;49.248;6.968;2024-02-16T03:58:46;13.80;98.20
27978;DHT22;15314;49.248;6.968;2024-02-16T04:00:06;13.80;98.00
27978;DHT22;15314;49.248;6.968;2024-02-16T04:01:25;13.80;97.80
27978;DHT22;15314;49.248;6.968;2024-02-16T04:02:44;13.90;97.90
27978;DHT22;15314;49.248;6.968;2024-02-16T04:04:04;13.80;98.20
27978;DHT22;15314;49.248;6.968;2024-02-16T04:05:23;13.80;97.80
27978;DHT22;15314;49.248;6.968;2024-02-16T04:06:43;14.00;98.10
27978;DHT22;15314;49.248;6.968;2024-02-16T04:08:03;13.90;98.10
27978;DHT22;15314;49.248;6.968;2024-02-16T04:09:23;14.00;97.90
27978;DHT22;15314;49.248;6.968;2024-02-16T04:10:42;14.00;98.00
27978;DHT22;15314;49.248;6.968;2024-02-16T04:12:01;14.00;98.00
27978;DHT22;15314;49.248;6.968;2024-02-16T04:13:22;14.00;97.70
27978;DHT22;15314;49.248;6.968;2024-02-16T04:14:41;14.00;97.80
27978;DHT22;15314;49.248;6.968;2024-02-16T04:16:02;13.90;97.70
27978;DHT22;15314;49.248;6.968;2024-02-16T04:17:21;14.00;97.50
27978;DHT22;15314;49.248;6.968;2024-02-16T04:18:41;13.90;97.60
27978;DHT22;15314;49.248;6.968;2024-02-16T04:20:00;14.00;97.80
27978;DHT22;15314;49.248;6.968;2024-02-16T04:21:19;14.00;97.50
27978;DHT22;15314;49.248;6.968;2024-02-16T04:22:36;14.00;97.40
27978;DHT22;15314;49.248;6.968;2024-02-16T04:23:57;14.00;97.30
27978;DHT22;15314;49.248;6.968;2024-02-16T04:25:16;14.00;97.40
27978;DHT22;15314;49.248;6.968;2024-02-16T04:26:35;14.10;97.40
27978;DHT22;15314;49.248;6.968;2024-02-16T04:27:54;14.00;97.50
27978;DHT22;15314;49.248;6.968;2024-02-16T04:29:14;14.00;97.50
27978;DHT22;15314;49.248;6.968;2024-02-16T04:30:33;14.10;97.40
27978;DHT22;15314;49.248;6.968;2024-02-16T04:31:52;14.10;97.10
27978;DHT22;15314;49.248;6.968;2024-02-16T04:33:11;14.10;97.10
27978;DHT22;15314;49.248;6.968;2024-02-16T04:34:30;14.10;97.30
27978;DHT22;15314;49.248;6.968;2024-02-16T04:35:50;14.10;97.40
27978;DHT22;15314;49.248;6.968;2024-02-16T04:37:09;14.10;97.20
27978;DHT22;15314;49.248;6.968;2024-02-16T04:38:29;14.10;97.40
27978;DHT22;15314;49.248;6.968;2024-02-16T04:39:49;14.20;97.20
27978;DHT22;15314;49.248;6.968;2024-02-16T04:41:05;14.20;97.20
27978;DHT22;15314;49.248;6.968;2024-02-16T04:42:25;14.20;97.10
27978;DHT22;15314;49.248;6.968;2024-02-16T04:43:44;14.20;97.10
27978;DHT22;15314;49.248;6.968;2024-02-16T04:45:03;14.10;97.00
27978;DHT22;15314;49.248;6.968;2024-02-16T04:46:22;14.10;97.00
27978;DHT22;15314;49.248;6.968;2024-02-16T04:47:42;14.10;97.10
27978;DHT22;15314;49.248;6.968;2024-02-16T04:49:01;14.10;97.10
27978;DHT22;15314;49.248;6.968;2024-02-16T04:50:20;14.00;97.00
27978;DHT22;15314;49.248;6.968;2024-02-16T04:51:39;14.00;97.10
27978;DHT22;15314;49.248;6.968;2024-02-16T04:52:59;14.00;97.20
27978;DHT22;15314;49.248;6.968;2024-02-16T04:54:20;14.00;97.40
27978;DHT22;15314;49.248;6.968;2024-02-16T04:55:39;13.90;97.30
27978;DHT22;15314;49.248;6.968;2024-02-16T04:56:59;13.90;97.50
27978;DHT22;15314;49.248;6.968;2024-02-16T04:58:18;13.90;97.50
27978;DHT22;15314;49.248;6.968;2024-02-16T04:59:37;13.90;97.40
27978;DHT22;15314;49.248;6.968;2024-02-16T05:00:57;13.90;97.50
27978;DHT22;15314;49.248;6.968;2024-02-16T05:02:16;13.90;97.60
27978;DHT22;15314;49.248;6.968;2024-02-16T05:03:35;13.90;97.40
27978;DHT22;15314;49.248;6.968;2024-02-16T05:04:55;13.80;97.30
27978;DHT22;15314;49.248;6.968;2024-02-16T05:06:14;13.80;97.50
27978;DHT22;15314;49.248;6.968;2024-02-16T05:07:34;13.80;97.40
27978;DHT22;15314;49.248;6.968;2024-02-16T05:08:56;13.80;97.60
27978;DHT22;15314;49.248;6.968;2024-02-16T05:10:15;13.80;97.60
27978;DHT22;15314;49.248;6.968;2024-02-16T05:11:35;13.80;97.50
27978;DHT22;15314;49.248;6.968;2024-02-16T05:12:54;13.90;97.50
27978;DHT22;15314;49.248;6.968;2024-02-16T05:14:13;13.90;97.50
27978;DHT22;15314;49.248;6.968;2024-02-16T05:15:32;13.90;97.60
27978;DHT22;15314;49.248;6.968;2024-02-16T05:16:51;13.80;97.80
27978;DHT22;15314;49.248;6.968;2024-02-16T05:18:11;13.80;97.60
27978;DHT22;15314;49.248;6.968;2024-02-16T05:19:32;13.90;97.50
27978;DHT22;15314;49.248;6.968;2024-02-16T05:20:48;13.70;97.50
27978;DHT22;15314;49.248;6.968;2024-02-16T05:22:07;13.80;97.60
27978;DHT22;15314;49.248;6.968;2024-02-16T05:23:26;13.70;97.70
27978;DHT22;15314;49.248;6.968;2024-02-16T05:24:45;13.80;97.80
27978;DHT22;15314;49.248;6.968;2024-02-16T05:26:04;13.90;97.60
27978;DHT22;15314;49.248;6.968;2024-02-16T05:27:24;13.80;97.70
27978;DHT22;15314;49.248;6.968;2024-02-16T05:28:43;13.80;97.60
27978;DHT22;15314;49.248;6.968;2024-02-16T05:30:02;13.80;97.60
27978;DHT22;15314;49.248;6.968;2024-02-16T05:31:23;13.80;97.70
27978;DHT22;15314;49.248;6.968;2024-02-16T05:32:42;13.80;97.80
27978;DHT22;15314;49.248;6.968;2024-02-16T05:34:01;13.90;97.90
27978;DHT22;15314;49.248;6.968;2024-02-16T05:35:21;13.90;97.80
27978;DHT22;15314;49.248;6.968;2024-02-16T05:36:37;14.00;97.60
27978;DHT22;15314;49.248;6.968;2024-02-16T05:37:56;13.90;97.60
27978;DHT22;15314;49.248;6.968;2024-02-16T05:39:15;13.90;97.60
27978;DHT22;15314;49.248;6.968;2024-02-16T05:40:45;13.90;97.50
27978;DHT22;15314;49.248;6.968;2024-02-16T05:42:12;13.80;97.60
27978;DHT22;15314;49.248;6.968;2024-02-16T05:43:31;13.80;97.70
27978;DHT22;15314;49.248;6.968;2024-02-16T05:44:52;13.70;97.70
27978;DHT22;15314;49.248;6.968;2024-02-16T05:46:15;13.70;97.90
27978;DHT22;15314;49.248;6.968;2024-02-16T05:47:34;13.70;98.00
27978;DHT22;15314;49.248;6.968;2024-02-16T05:48:53;13.70;97.90
27978;DHT22;15314;49.248;6.968;2024-02-16T05:50:13;13.60;97.90
27978;DHT22;15314;49.248;6.968;2024-02-16T05:51:37;13.60;98.00
27978;DHT22;15314;49.248;6.968;2024-02-16T05:52:58;13.60;98.00
27978;DHT22;15314;49.248;6.968;2024-02-16T05:54:17;13.60;98.10
27978;DHT22;15314;49.248;6.968;2024-02-16T05:55:36;13.60;98.10
27978;DHT22;15314;49.248;6.968;2024-02-16T05:56:55;13.60;98.10
27978;DHT22;15314;49.248;6.968;2024-02-16T05:58:14;13.60;98.10
27978;DHT22;15314;49.248;6.968;2024-02-16T05:59:34;13.60;98.10
27978;DHT22;15314;49.248;6.968;2024-02-16T06:00:53;13.70;98.10
27978;DHT22;15314;49.248;6.968;2024-02-16T06:02:13;13.70;98.00
27978;DHT22;15314;49.248;6.968;2024-02-16T06:03:33;13.80;98.10
27978;DHT22;15314;49.248;6.968;2024-02-16T06:04:53;13.80;97.90
27978;DHT22;15314;49.248;6.968;2024-02-16T06:06:12;13.80;98.00
27978;DHT22;15314;49.248;6.968;2024-02-16T06:07:31;13.80;98.00
27978;DHT22;15314;49.248;6.968;2024-02-16T06:08:50;13.80;97.90
27978;DHT22;15314;49.248;6.968;2024-02-16T06:10:10;13.90;98.00
27978;DHT22;15314;49.248;6.968;2024-02-16T06:11:29;13.80;98.00
27978;DHT22;15314;49.248;6.968;2024-02-16T06:12:49;13.70;98.10
27978;DHT22;15314;49.248;6.968;2024-02-16T06:14:05;13.80;98.10
27978;DHT22;15314;49.248;6.968;2024-02-16T06:15:24;13.80;98.10
27978;DHT22;15314;49.248;6.968;2024-02-16T06:16:44;13.70;98.20
27978;DHT22;15314;49.248;6.968;2024-02-16T06:18:04;13.70;98.20
27978;DHT22;15314;49.248;6.968;2024-02-16T06:19:24;13.70;98.30
27978;DHT22;15314;49.248;6.968;2024-02-16T06:20:43;13.70;98.30
27978;DHT22;15314;49.248;6.968;2024-02-16T06:22:02;13.80;98.30
27978;DHT22;15314;49.248;6.968;2024-02-16T06:23:21;13.80;98.20
27978;DHT22;15314;49.248;6.968;2024-02-16T06:24:41;13.80;98.10
27978;DHT22;15314;49.248;6.968;2024-02-16T06:26:00;13.80;98.20
27978;DHT22;15314;49.248;6.968;2024-02-16T06:27:20;13.80;98.10
27978;DHT22;15314;49.248;6.968;2024-02-16T06:28:39;13.80;98.10
27978;DHT22;15314;49.248;6.968;2024-02-16T06:29:59;13.70;98.20
27978;DHT22;15314;49.248;6.968;2024-02-16T06:31:18;13.70;98.40
27978;DHT22;15314;49.248;6.968;2024-02-16T06:32:37;13.60;98.30
27978;DHT22;15314;49.248;6.968;2024-02-16T06:33:56;13.50;98.50
27978;DHT22;15314;49.248;6.968;2024-02-16T06:35:15;13.40;98.70
27978;DHT22;15314;49.248;6.968;2024-02-16T06:36:35;13.50;98.80
27978;DHT22;15314;49.248;6.968;2024-02-16T06:37:54;13.40;98.70
27978;DHT22;15314;49.248;6.968;2024-02-16T06:39:13;13.40;98.90
27978;DHT22;15314;49.248;6.968;2024-02-16T06:40:35;13.40;98.90
27978;DHT22;15314;49.248;6.968;2024-02-16T06:41:55;13.40;98.90
27978;DHT22;15314;49.248;6.968;2024-02-16T06:43:14;13.40;98.90
27978;DHT22;15314;49.248;6.968;2024-02-16T06:44:33;13.40;98.90
27978;DHT22;15314;49.248;6.968;2024-02-16T06:45:52;13.30;98.90
27978;DHT22;15314;49.248;6.968;2024-02-16T06:47:14;13.30;99.10
27978;DHT22;15314;49.248;6.968;2024-02-16T06:48:33;13.30;99.10
27978;DHT22;15314;49.248;6.968;2024-02-16T06:49:52;13.30;99.10
27978;DHT22;15314;49.248;6.968;2024-02-16T06:51:11;13.30;99.10
27978;DHT22;15314;49.248;6.968;2024-02-16T06:52:31;13.30;99.20
27978;DHT22;15314;49.248;6.968;2024-02-16T06:53:50;13.30;99.30
27978;DHT22;15314;49.248;6.968;2024-02-16T06:55:10;13.30;99.20
27978;DHT22;15314;49.248;6.968;2024-02-16T06:56:31;13.30;99.20
27978;DHT22;15314;49.248;6.968;2024-02-16T06:57:50;13.30;99.30
27978;DHT22;15314;49.248;6.968;2024-02-16T06:59:09;13.40;99.40
27978;DHT22;15314;49.248;6.968;2024-02-16T07:00:29;13.30;99.20
27978;DHT22;15314;49.248;6.968;2024-02-16T07:01:48;13.40;99.30
27978;DHT22;15314;49.248;6.968;2024-02-16T07:03:07;13.40;99.20
27978;DHT22;15314;49.248;6.968;2024-02-16T07:04:27;13.40;99.20
27978;DHT22;15314;49.248;6.968;2024-02-16T07:05:47;13.40;99.40
27978;DHT22;15314;49.248;6.968;2024-02-16T07:07:07;13.40;99.30
27978;DHT22;15314;49.248;6.968;2024-02-16T07:08:27;13.40;99.40
27978;DHT22;15314;49.248;6.968;2024-02-16T07:09:46;13.30;99.30
27978;DHT22;15314;49.248;6.968;2024-02-16T07:11:05;13.50;99.40
27978;DHT22;15314;49.248;6.968;2024-02-16T07:12:25;13.50;99.30
27978;DHT22;15314;49.248;6.968;2024-02-16T07:13:44;13.40;99.30
27978;DHT22;15314;49.248;6.968;2024-02-16T07:15:03;13.30;99.40
27978;DHT22;15314;49.248;6.968;2024-02-16T07:16:22;13.30;99.50
27978;DHT22;15314;49.248;6.968;2024-02-16T07:17:41;13.30;99.60
27978;DHT22;15314;49.248;6.968;2024-02-16T07:19:01;13.40;99.70
27978;DHT22;15314;49.248;6.968;2024-02-16T07:20:20;13.30;99.60
27978;DHT22;15314;49.248;6.968;2024-02-16T07:21:39;13.30;99.70
27978;DHT22;15314;49.248;6.968;2024-02-16T07:22:59;13.20;99.80
27978;DHT22;15314;49.248;6.968;2024-02-16T07:24:18;13.20;99.80
27978;DHT22;15314;49.248;6.968;2024-02-16T07:25:37;13.20;99.80
27978;DHT22;15314;49.248;6.968;2024-02-16T07:26:57;13.20;99.80
27978;DHT22;15314;49.248;6.968;2024-02-16T07:28:16;13.20;99.90
27978;DHT22;15314;49.248;6.968;2024-02-16T07:29:35;13.20;99.90
27978;DHT22;15314;49.248;6.968;2024-02-16T07:30:56;13.30;99.90
27978;DHT22;15314;49.248;6.968;2024-02-16T07:32:16;13.30;99.90
27978;DHT22;15314;49.248;6.968;2024-02-16T07:33:35;13.30;99.90
27978;DHT22;15314;49.248;6.968;2024-02-16T07:34:54;13.30;99.80
27978;DHT22;15314;49.248;6.968;2024-02-16T07:36:13;13.40;99.80
27978;DHT22;15314;49.248;6.968;2024-02-16T07:37:33;13.40;99.80
27978;DHT22;15314;49.248;6.968;2024-02-16T07:38:52;13.40;99.80
27978;DHT22;15314;49.248;6.968;2024-02-16T07:40:12;13.40;99.90
27978;DHT22;15314;49.248;6.968;2024-02-16T07:41:31;13.40;99.80
27978;DHT22;15314;49.248;6.968;2024-02-16T07:42:50;13.50;99.90
27978;DHT22;15314;49.248;6.968;2024-02-16T07:44:09;13.50;99.70
27978;DHT22;15314;49.248;6.968;2024-02-16T07:45:29;13.60;99.50
27978;DHT22;15314;49.248;6.968;2024-02-16T07:46:48;13.60;99.50
27978;DHT22;15314;49.248;6.968;2024-02-16T07:48:09;13.60;99.60
27978;DHT22;15314;49.248;6.968;2024-02-16T07:49:28;13.60;99.60
27978;DHT22;15314;49.248;6.968;2024-02-16T07:50:48;13.70;99.60
27978;DHT22;15314;49.248;6.968;2024-02-16T07:52:09;13.70;99.50
27978;DHT22;15314;49.248;6.968;2024-02-16T07:53:28;13.70;99.50
27978;DHT22;15314;49.248;6.968;2024-02-16T07:54:48;13.70;99.50
27978;DHT22;15314;49.248;6.968;2024-02-16T07:56:09;13.60;99.50
27978;DHT22;15314;49.248;6.968;2024-02-16T07:57:28;13.70;99.70
27978;DHT22;15314;49.248;6.968;2024-02-16T07:58:49;13.70;99.60
27978;DHT22;15314;49.248;6.968;2024-02-16T08:00:08;13.80;99.50
27978;DHT22;15314;49.248;6.968;2024-02-16T08:01:29;13.80;99.60
27978;DHT22;15314;49.248;6.968;2024-02-16T08:02:49;13.80;99.70
27978;DHT22;15314;49.248;6.968;2024-02-16T08:04:08;13.90;99.70
27978;DHT22;15314;49.248;6.968;2024-02-16T08:05:27;13.80;99.40
27978;DHT22;15314;49.248;6.968;2024-02-16T08:06:46;13.80;99.60
27978;DHT22;15314;49.248;6.968;2024-02-16T08:08:06;13.80;99.60
27978;DHT22;15314;49.248;6.968;2024-02-16T08:09:25;13.90;99.60
27978;DHT22;15314;49.248;6.968;2024-02-16T08:10:44;14.00;99.60
27978;DHT22;15314;49.248;6.968;2024-02-16T08:12:04;14.00;99.40
27978;DHT22;15314;49.248;6.968;2024-02-16T08:13:25;14.10;99.40
27978;DHT22;15314;49.248;6.968;2024-02-16T08:14:45;14.10;99.40
27978;DHT22;15314;49.248;6.968;2024-02-16T08:16:05;14.10;99.30
27978;DHT22;15314;49.248;6.968;2024-02-16T08:17:26;14.10;99.40
27978;DHT22;15314;49.248;6.968;2024-02-16T08:18:45;14.10;99.40
27978;DHT22;15314;49.248;6.968;2024-02-16T08:20:04;14.20;99.30
27978;DHT22;15314;49.248;6.968;2024-02-16T08:21:23;14.20;99.30